Time;durP1;ratioP1;P1;durP2;ratioP2;P2;SDS_P1;SDS_P2;PMS_P1;PMS_P2;Temp;Humidity;BMP_temperature;BMP_pressure;BME280_temperature;BME280_humidity;BME280_pressure;Samples;Min_cycle;Max_cycle;Signal;HPM_P1;HPM_P2
2024/02/20 00:02:18;;;;;;;15.02;1.48;;;6.40;99.90;;;;;;6304284;22;20007;-88
2024/02/20 00:04:44;;;;;;;14.25;1.25;;;6.40;99.90;;;;;;6278711;22;20011;-87
2024/02/20 00:07:10;;;;;;;15.23;1.85;;;6.30;99.90;;;;;;6304878;22;20070;-87
2024/02/20 00:09:35;;;;;;;12.77;0.85;;;6.40;99.90;;;;;;6304006;22;19995;-88
2024/02/20 00:12:01;;;;;;;13.73;1.05;;;6.30;99.90;;;;;;6278829;22;20084;-88
2024/02/20 00:14:27;;;;;;;15.20;0.98;;;6.40;99.90;;;;;;6303959;22;20003;-88
2024/02/20 00:16:53;;;;;;;13.15;1.33;;;6.40;99.90;;;;;;6304055;22;20000;-88
2024/02/20 00:19:20;;;;;;;9.57;0.77;;;6.30;99.90;;;;;;6303648;22;20014;-88
2024/02/20 00:21:46;;;;;;;10.73;0.60;;;6.30;99.90;;;;;;6279029;22;20007;-87
2024/02/20 00:24:12;;;;;;;5.90;0.68;;;6.20;99.90;;;;;;6278946;22;20011;-87
2024/02/20 00:26:38;;;;;;;9.88;0.75;;;6.20;99.90;;;;;;6247888;22;20083;-88
2024/02/20 00:29:04;;;;;;;11.55;1.35;;;6.20;99.90;;;;;;6273341;22;20096;-89
2024/02/20 00:31:32;;;;;;;11.30;0.82;;;6.30;99.90;;;;;;6273444;22;20065;-87
2024/02/20 00:34:02;;;;;;;9.77;1.05;;;6.20;99.90;;;;;;6248227;22;20012;-88
2024/02/20 00:36:31;;;;;;;6.53;0.75;;;6.30;99.90;;;;;;6299058;22;20091;-88
2024/02/20 00:38:56;;;;;;;11.27;0.80;;;6.20;99.90;;;;;;6248311;22;20468;-88
2024/02/20 00:41:22;;;;;;;7.18;1.05;;;6.20;99.90;;;;;;6273210;22;20049;-88
2024/02/20 00:43:48;;;;;;;11.18;0.98;;;6.10;99.90;;;;;;6275275;22;20003;-87
2024/02/20 00:46:21;;;;;;;13.65;0.95;;;6.10;99.90;;;;;;6273424;22;20336;-88
2024/02/20 00:48:48;;;;;;;8.50;0.95;;;6.20;99.90;;;;;;6272996;22;20015;-88
2024/02/20 00:51:19;;;;;;;14.38;1.20;;;6.30;99.90;;;;;;6272504;22;20004;-87
2024/02/20 00:53:45;;;;;;;18.17;1.38;;;6.30;99.90;;;;;;6274774;22;20383;-87
2024/02/20 00:56:11;;;;;;;24.48;2.20;;;6.30;99.90;;;;;;6274282;22;20008;-87
2024/02/20 00:58:39;;;;;;;15.25;1.40;;;6.30;99.90;;;;;;6247073;22;20015;-87
2024/02/20 01:01:10;;;;;;;20.73;1.60;;;6.30;99.90;;;;;;6272420;22;20007;-88
2024/02/20 01:03:37;;;;;;;17.45;1.63;;;6.30;99.90;;;;;;6247908;22;20015;-88
2024/02/20 01:06:03;;;;;;;15.07;1.58;;;6.30;99.90;;;;;;6247474;22;20007;-87
2024/02/20 01:08:29;;;;;;;13.73;1.38;;;6.20;99.90;;;;;;6247323;22;20338;-88
2024/02/20 01:10:55;;;;;;;18.58;1.45;;;6.30;99.90;;;;;;6272530;22;20003;-88
2024/02/20 01:13:20;;;;;;;15.18;2.03;;;6.30;99.90;;;;;;6272428;22;20008;-88
2024/02/20 01:15:46;;;;;;;16.13;1.38;;;6.20;99.90;;;;;;6246788;22;20026;-88
2024/02/20 01:18:12;;;;;;;12.45;0.90;;;6.20;99.90;;;;;;6272307;22;20192;-87
2024/02/20 01:20:39;;;;;;;19.88;1.67;;;6.20;99.90;;;;;;6272055;22;20043;-87
2024/02/20 01:23:05;;;;;;;15.68;1.58;;;6.30;99.90;;;;;;6298920;22;20429;-88
2024/02/20 01:25:31;;;;;;;11.90;1.48;;;6.20;99.90;;;;;;6288525;22;20049;-87
2024/02/20 01:27:56;;;;;;;7.82;1.25;;;6.20;99.90;;;;;;6278238;22;20003;-87
2024/02/20 01:30:22;;;;;;;15.25;1.25;;;6.20;99.90;;;;;;6303479;22;20011;-87
2024/02/20 01:32:51;;;;;;;10.27;1.17;;;6.20;99.90;;;;;;6303811;22;20003;-87
2024/02/20 01:35:17;;;;;;;8.83;0.80;;;6.20;99.90;;;;;;6303956;22;20077;-87
2024/02/20 01:37:43;;;;;;;9.68;1.45;;;6.10;99.90;;;;;;6304710;22;20408;-87
2024/02/20 01:40:09;;;;;;;11.35;0.70;;;6.10;99.90;;;;;;6303821;22;20069;-87
2024/02/20 01:42:38;;;;;;;11.02;1.20;;;6.00;99.90;;;;;;6277828;22;20007;-88
2024/02/20 01:45:04;;;;;;;10.88;0.80;;;6.10;99.90;;;;;;6278101;22;19999;-87
2024/02/20 01:47:31;;;;;;;13.45;1.15;;;6.10;99.90;;;;;;6277165;22;20470;-87
2024/02/20 01:49:58;;;;;;;12.05;0.98;;;6.20;99.90;;;;;;6303260;22;20010;-87
2024/02/20 01:52:25;;;;;;;9.52;1.00;;;6.20;99.90;;;;;;6278474;22;20015;-86
2024/02/20 01:54:50;;;;;;;19.23;1.75;;;6.20;99.90;;;;;;6303158;22;20095;-87
2024/02/20 01:57:17;;;;;;;19.45;1.63;;;6.20;99.90;;;;;;6277707;22;20023;-87
2024/02/20 01:59:44;;;;;;;17.05;1.52;;;6.30;99.90;;;;;;6303315;22;20022;-86
2024/02/20 02:02:11;;;;;;;21.52;2.45;;;6.30;99.90;;;;;;6303526;22;20336;-87
2024/02/20 02:04:37;;;;;;;16.10;1.48;;;6.30;99.90;;;;;;6277756;22;20011;-87
2024/02/20 02:07:03;;;;;;;12.43;1.70;;;6.30;99.90;;;;;;6303594;22;20007;-87
2024/02/20 02:09:29;;;;;;;25.85;3.90;;;6.30;99.90;;;;;;6277151;22;20022;-87
2024/02/20 02:11:55;;;;;;;18.85;2.28;;;6.30;99.90;;;;;;6277865;22;20000;-87
2024/02/20 02:14:20;;;;;;;17.88;2.63;;;6.30;99.90;;;;;;6302725;22;20060;-87
2024/02/20 02:16:46;;;;;;;23.75;3.65;;;6.30;99.90;;;;;;6276843;22;20003;-85
2024/02/20 02:19:12;;;;;;;19.80;2.78;;;6.30;99.90;;;;;;6276809;22;20340;-86
2024/02/20 02:21:38;;;;;;;15.57;1.90;;;6.30;99.90;;;;;;6302784;22;20442;-87
2024/02/20 02:24:07;;;;;;;25.40;2.10;;;6.30;99.90;;;;;;6276739;22;20195;-87
2024/02/20 02:26:34;;;;;;;16.42;2.40;;;6.30;99.90;;;;;;6302151;22;20090;-86
2024/02/20 02:29:00;;;;;;;24.17;3.15;;;6.20;99.90;;;;;;6302974;22;20000;-87
2024/02/20 02:31:25;;;;;;;22.50;1.90;;;6.30;99.90;;;;;;6276856;22;20014;-87
2024/02/20 02:33:51;;;;;;;21.63;2.17;;;6.30;99.90;;;;;;6277178;22;20011;-87
2024/02/20 02:36:17;;;;;;;17.50;2.15;;;6.20;99.90;;;;;;6302558;22;20010;-87
2024/02/20 02:38:43;;;;;;;23.02;1.92;;;6.20;99.90;;;;;;6302444;22;20011;-87
2024/02/20 02:41:12;;;;;;;20.92;2.70;;;6.20;99.90;;;;;;6277398;22;20222;-86
2024/02/20 02:43:38;;;;;;;19.27;1.83;;;6.30;99.90;;;;;;6304798;22;20003;-86
2024/02/20 02:46:04;;;;;;;12.45;0.95;;;6.20;99.90;;;;;;6303036;22;20042;-87
2024/02/20 02:48:29;;;;;;;14.10;1.27;;;6.20;99.90;;;;;;6302581;22;20007;-86
2024/02/20 02:50:55;;;;;;;18.42;2.08;;;6.30;99.90;;;;;;6302795;22;20060;-86
2024/02/20 02:53:21;;;;;;;18.63;2.10;;;6.30;99.90;;;;;;6302195;22;20522;-86
2024/02/20 02:55:50;;;;;;;19.90;2.33;;;6.30;99.90;;;;;;6302702;22;20455;-86
2024/02/20 02:58:16;;;;;;;26.50;3.20;;;6.40;99.90;;;;;;6304026;22;20080;-86
2024/02/20 03:00:41;;;;;;;19.27;2.47;;;6.40;99.90;;;;;;6276453;22;20495;-86
2024/02/20 03:03:07;;;;;;;23.25;3.10;;;6.40;99.90;;;;;;6276822;22;20012;-86
2024/02/20 03:05:36;;;;;;;11.15;1.60;;;6.30;99.90;;;;;;6277320;22;20007;-85
2024/02/20 03:08:02;;;;;;;23.63;2.30;;;6.30;99.90;;;;;;6277620;22;20007;-85
2024/02/20 03:10:28;;;;;;;17.92;1.80;;;6.30;99.90;;;;;;6302787;22;20029;-88
2024/02/20 03:12:55;;;;;;;13.98;1.38;;;6.40;99.90;;;;;;6276803;22;20057;-86
2024/02/20 03:15:21;;;;;;;15.02;1.25;;;6.30;99.90;;;;;;6276811;22;20007;-86
2024/02/20 03:17:49;;;;;;;16.98;1.45;;;6.30;99.90;;;;;;6277215;22;20447;-87
2024/02/20 03:20:15;;;;;;;18.42;1.85;;;6.30;99.90;;;;;;6276505;22;20348;-87
2024/02/20 03:22:44;;;;;;;14.27;1.55;;;6.30;99.90;;;;;;6277460;22;20317;-86
2024/02/20 03:25:10;;;;;;;17.73;2.28;;;6.30;99.90;;;;;;6302660;22;20447;-85
2024/02/20 03:27:39;;;;;;;24.65;2.40;;;6.30;99.90;;;;;;6302919;22;20010;-87
2024/02/20 03:30:06;;;;;;;20.77;2.92;;;6.30;99.90;;;;;;6302664;22;20030;-87
2024/02/20 03:32:32;;;;;;;19.30;1.42;;;6.30;99.90;;;;;;6302473;22;20455;-87
2024/02/20 03:34:59;;;;;;;19.73;2.38;;;6.30;99.90;;;;;;6277865;22;20000;-87
2024/02/20 03:37:24;;;;;;;15.70;1.70;;;6.30;99.90;;;;;;6278971;22;20018;-87
2024/02/20 03:39:50;;;;;;;20.65;2.28;;;6.30;99.90;;;;;;6306582;22;20011;-87
2024/02/20 03:42:17;;;;;;;17.25;1.60;;;6.20;99.90;;;;;;6278363;22;20006;-87
2024/02/20 03:44:43;;;;;;;11.02;1.45;;;6.30;99.90;;;;;;6278819;22;20401;-87
2024/02/20 03:47:09;;;;;;;15.02;1.73;;;6.30;99.90;;;;;;6304958;22;20512;-88
2024/02/20 03:49:35;;;;;;;15.43;1.10;;;6.30;99.90;;;;;;6304557;22;20227;-87
2024/02/20 03:52:01;;;;;;;15.07;1.25;;;6.20;99.90;;;;;;6278577;22;20003;-87
2024/02/20 03:54:27;;;;;;;16.75;1.40;;;6.20;99.90;;;;;;6304825;22;20003;-86
2024/02/20 03:56:53;;;;;;;13.32;1.10;;;6.20;99.90;;;;;;6279348;22;20003;-87
2024/02/20 03:59:19;;;;;;;10.88;1.00;;;6.20;99.90;;;;;;6279098;22;20019;-87
2024/02/20 04:01:45;;;;;;;12.50;0.90;;;6.20;99.90;;;;;;6278777;22;20367;-87
2024/02/20 04:04:11;;;;;;;14.82;0.95;;;6.20;99.90;;;;;;6278908;22;20042;-87
2024/02/20 04:06:38;;;;;;;12.68;1.13;;;6.20;99.90;;;;;;6305066;22;20391;-87
2024/02/20 04:09:04;;;;;;;8.30;0.50;;;6.10;99.90;;;;;;6279224;22;20007;-87
2024/02/20 04:11:30;;;;;;;6.97;0.95;;;6.20;99.90;;;;;;6278636;22;20346;-87
2024/02/20 04:13:56;;;;;;;13.18;1.58;;;6.10;99.90;;;;;;6278377;22;20014;-88
2024/02/20 04:16:22;;;;;;;13.45;2.30;;;6.20;99.90;;;;;;6303661;22;19999;-87
2024/02/20 04:18:47;;;;;;;9.00;0.80;;;6.20;99.90;;;;;;6279185;22;20015;-87
2024/02/20 04:21:14;;;;;;;9.95;0.82;;;6.30;99.90;;;;;;6278808;22;20011;-87
2024/02/20 04:23:39;;;;;;;10.88;0.70;;;6.20;99.90;;;;;;6305163;22;20004;-87
2024/02/20 04:26:05;;;;;;;6.63;0.70;;;6.20;99.90;;;;;;6279212;22;20011;-86
2024/02/20 04:28:35;;;;;;;11.25;1.00;;;6.20;99.90;;;;;;6304081;22;20031;-87
2024/02/20 04:31:04;;;;;;;5.50;0.70;;;6.20;99.90;;;;;;6304555;22;20086;-87
2024/02/20 04:33:30;;;;;;;7.07;0.73;;;6.10;99.90;;;;;;6278454;22;20089;-87
2024/02/20 04:35:56;;;;;;;13.68;1.20;;;6.20;99.90;;;;;;6278657;22;20003;-88
2024/02/20 04:38:22;;;;;;;10.60;1.17;;;6.20;99.90;;;;;;6304315;22;20018;-87
2024/02/20 04:40:51;;;;;;;14.40;1.38;;;6.20;99.90;;;;;;6278661;22;20102;-87
2024/02/20 04:43:17;;;;;;;12.55;1.30;;;6.20;99.90;;;;;;6278114;22;20023;-88
2024/02/20 04:45:44;;;;;;;12.50;1.10;;;6.20;99.90;;;;;;6278566;22;20021;-87
2024/02/20 04:48:10;;;;;;;11.20;1.20;;;6.20;99.90;;;;;;6304385;22;20048;-87
2024/02/20 04:50:36;;;;;;;8.10;0.98;;;6.10;99.90;;;;;;6278587;22;20007;-88
2024/02/20 04:53:02;;;;;;;3.58;0.40;;;6.10;99.90;;;;;;6278772;22;20007;-88
2024/02/20 04:55:31;;;;;;;10.45;0.60;;;6.00;99.90;;;;;;6304373;22;20001;-87
2024/02/20 04:57:56;;;;;;;9.30;0.82;;;6.10;99.90;;;;;;6304634;22;20076;-88
2024/02/20 05:00:22;;;;;;;6.88;0.63;;;6.10;99.90;;;;;;6304097;22;20015;-87
2024/02/20 05:02:48;;;;;;;4.03;0.57;;;6.00;99.90;;;;;;6278851;22;20061;-87
2024/02/20 05:05:14;;;;;;;5.10;0.50;;;5.90;99.90;;;;;;6303824;22;20061;-87
2024/02/20 05:07:40;;;;;;;5.95;0.50;;;6.00;99.90;;;;;;6305180;22;19999;-87
2024/02/20 05:10:07;;;;;;;7.60;0.65;;;6.00;99.90;;;;;;6306182;22;20491;-87
2024/02/20 05:12:35;;;;;;;5.03;0.50;;;6.10;99.90;;;;;;6277573;22;20071;-90
2024/02/20 05:15:00;;;;;;;6.90;0.75;;;6.20;99.90;;;;;;6275908;22;20387;-89
2024/02/20 05:17:26;;;;;;;7.63;0.55;;;6.10;99.90;;;;;;6303476;22;20011;-88
2024/02/20 05:19:52;;;;;;;7.55;0.50;;;6.00;99.90;;;;;;6305012;22;20011;-88
2024/02/20 05:22:19;;;;;;;5.30;0.43;;;5.90;99.90;;;;;;6277022;22;20007;-88
2024/02/20 05:24:45;;;;;;;7.68;0.68;;;5.90;99.90;;;;;;6277958;22;20435;-89
2024/02/20 05:27:11;;;;;;;5.60;0.50;;;5.90;99.90;;;;;;6276682;22;20042;-88
2024/02/20 05:29:36;;;;;;;5.50;0.50;;;5.90;99.90;;;;;;6277204;22;20046;-88
2024/02/20 05:32:02;;;;;;;4.80;0.60;;;5.80;99.90;;;;;;6277982;22;20076;-89
2024/02/20 05:34:28;;;;;;;6.75;0.73;;;5.80;99.90;;;;;;6303664;22;20021;-89
2024/02/20 05:36:53;;;;;;;4.55;0.43;;;5.80;99.90;;;;;;6304370;22;20010;-89
2024/02/20 05:39:19;;;;;;;5.20;0.50;;;5.80;99.90;;;;;;6302466;22;20482;-88
2024/02/20 05:41:45;;;;;;;3.20;0.50;;;5.70;99.90;;;;;;6277407;22;20415;-89
2024/02/20 05:44:11;;;;;;;5.45;0.50;;;5.60;99.90;;;;;;6302841;22;19999;-88
2024/02/20 05:46:37;;;;;;;5.97;0.50;;;5.70;99.90;;;;;;6303153;22;20074;-88
2024/02/20 05:49:06;;;;;;;7.15;0.70;;;5.70;99.90;;;;;;6304611;22;20007;-89
2024/02/20 05:51:32;;;;;;;5.90;0.70;;;5.60;99.90;;;;;;6302985;22;20026;-89
2024/02/20 05:53:58;;;;;;;5.43;0.60;;;5.70;99.90;;;;;;6277210;22;20012;-88
2024/02/20 05:56:25;;;;;;;8.25;1.30;;;5.80;99.90;;;;;;6303960;22;20466;-88
2024/02/20 05:58:51;;;;;;;6.70;0.80;;;5.80;99.90;;;;;;6277084;22;20023;-89
2024/02/20 06:01:17;;;;;;;9.77;0.77;;;5.80;99.90;;;;;;6303860;22;20007;-88
2024/02/20 06:03:43;;;;;;;7.57;0.88;;;5.90;99.90;;;;;;6301934;22;20013;-88
2024/02/20 06:06:13;;;;;;;4.40;0.88;;;5.80;99.90;;;;;;6302327;22;20499;-88
2024/02/20 06:08:46;;;;;;;3.63;0.60;;;5.80;99.90;;;;;;6277314;22;20015;-89
2024/02/20 06:11:17;;;;;;;6.07;0.77;;;5.80;99.90;;;;;;6276637;22;20011;-89
2024/02/20 06:13:44;;;;;;;5.28;0.70;;;5.80;99.90;;;;;;6302704;22;20010;-89
2024/02/20 06:16:10;;;;;;;7.82;0.95;;;5.80;99.90;;;;;;6276931;22;19999;-88
2024/02/20 06:18:37;;;;;;;6.57;0.70;;;6.00;99.90;;;;;;6302617;22;20098;-89
2024/02/20 06:21:04;;;;;;;5.82;0.80;;;5.90;99.90;;;;;;6277743;22;20004;-89
2024/02/20 06:23:30;;;;;;;6.45;0.88;;;5.80;99.90;;;;;;6302940;22;20380;-88
2024/02/20 06:25:56;;;;;;;6.20;1.02;;;5.90;99.90;;;;;;6276735;22;20045;-89
2024/02/20 06:28:21;;;;;;;5.65;0.70;;;5.90;99.90;;;;;;6276702;22;20025;-88
2024/02/20 06:30:47;;;;;;;6.25;0.80;;;5.90;99.90;;;;;;6276439;22;20007;-88
2024/02/20 06:33:14;;;;;;;4.53;0.88;;;5.90;99.90;;;;;;6276845;22;19999;-88
2024/02/20 06:35:41;;;;;;;5.75;1.05;;;5.90;99.90;;;;;;6276993;22;20009;-88
2024/02/20 06:38:07;;;;;;;7.03;1.48;;;5.90;99.90;;;;;;6277388;22;20061;-87
2024/02/20 06:40:33;;;;;;;5.22;0.90;;;5.90;99.90;;;;;;6263300;22;20477;-87
2024/02/20 06:42:59;;;;;;;6.07;0.73;;;5.90;99.90;;;;;;6290719;22;20007;-87
2024/02/20 06:45:25;;;;;;;11.85;1.30;;;5.90;99.90;;;;;;6272377;22;20015;-87
2024/02/20 06:47:51;;;;;;;6.03;0.70;;;5.90;99.90;;;;;;6273783;22;20017;-87
2024/02/20 06:50:17;;;;;;;7.07;0.90;;;6.00;99.90;;;;;;6300365;22;20090;-87
2024/02/20 06:52:46;;;;;;;5.60;0.95;;;6.00;99.90;;;;;;6304397;22;20422;-87
2024/02/20 06:55:12;;;;;;;8.45;0.70;;;6.00;99.90;;;;;;6302672;22;20004;-87
2024/02/20 06:57:39;;;;;;;5.03;1.05;;;6.00;99.90;;;;;;6276410;22;20066;-87
2024/02/20 07:00:14;;;;;;;5.90;1.00;;;6.10;99.90;;;;;;6276478;22;20022;-87
2024/02/20 07:02:41;;;;;;;6.13;1.30;;;6.10;99.90;;;;;;6303859;22;20499;-87
2024/02/20 07:05:08;;;;;;;7.25;0.70;;;6.20;99.90;;;;;;6302779;22;20022;-87
2024/02/20 07:07:34;;;;;;;6.75;0.75;;;6.20;99.90;;;;;;6277289;22;20106;-87
2024/02/20 07:10:00;;;;;;;9.50;1.27;;;6.20;99.90;;;;;;6277275;22;20042;-87
2024/02/20 07:12:27;;;;;;;6.10;0.90;;;6.20;99.90;;;;;;6278832;22;20424;-87
2024/02/20 07:14:52;;;;;;;3.53;0.73;;;6.30;99.90;;;;;;6306026;22;20082;-87
2024/02/20 07:17:18;;;;;;;5.68;0.77;;;6.30;99.90;;;;;;6304499;22;20520;-88
2024/02/20 07:19:44;;;;;;;7.95;0.73;;;6.40;99.90;;;;;;6303917;22;20019;-87
2024/02/20 07:22:09;;;;;;;6.90;0.95;;;6.30;99.90;;;;;;6278861;22;19999;-87
2024/02/20 07:24:35;;;;;;;4.15;0.80;;;6.30;99.90;;;;;;6278497;22;20029;-87
2024/02/20 07:27:01;;;;;;;6.07;0.93;;;6.40;99.90;;;;;;6304082;22;20011;-87
2024/02/20 07:29:27;;;;;;;9.18;0.98;;;6.40;99.90;;;;;;6278474;22;20007;-87
2024/02/20 07:31:54;;;;;;;5.18;0.73;;;6.40;99.90;;;;;;6278762;22;20372;-87
2024/02/20 07:34:20;;;;;;;5.50;0.80;;;6.40;99.90;;;;;;6304905;22;20056;-87
2024/02/20 07:36:48;;;;;;;4.55;0.70;;;6.40;99.90;;;;;;6304639;22;20400;-87
2024/02/20 07:39:14;;;;;;;4.78;0.90;;;6.50;99.90;;;;;;6278059;22;20102;-88
2024/02/20 07:41:40;;;;;;;6.88;1.00;;;6.60;99.90;;;;;;6304925;22;20338;-88
2024/02/20 07:44:05;;;;;;;6.25;0.82;;;6.60;99.90;;;;;;6278416;22;20011;-88
2024/02/20 07:46:32;;;;;;;6.38;0.80;;;6.60;99.90;;;;;;6278535;22;20022;-88
2024/02/20 07:48:59;;;;;;;4.85;0.65;;;6.70;99.90;;;;;;6279117;22;20060;-87
2024/02/20 07:51:24;;;;;;;7.47;0.90;;;6.80;99.90;;;;;;6304254;22;20110;-88
2024/02/20 07:53:51;;;;;;;5.80;0.63;;;6.90;99.90;;;;;;6279058;22;20206;-88
2024/02/20 07:56:27;;;;;;;5.10;0.70;;;7.00;99.90;;;;;;6304345;22;20053;-89
2024/02/20 07:58:53;;;;;;;8.00;0.70;;;7.10;99.90;;;;;;6278670;22;20008;-88
2024/02/20 08:01:19;;;;;;;5.72;0.90;;;7.20;99.90;;;;;;6304328;22;20007;-88
2024/02/20 08:03:48;;;;;;;6.43;0.80;;;7.20;99.90;;;;;;6278757;22;20328;-88
2024/02/20 08:06:17;;;;;;;5.55;1.00;;;7.30;99.90;;;;;;6303443;22;20011;-88
2024/02/20 08:08:44;;;;;;;6.00;0.90;;;7.40;99.90;;;;;;6278849;22;20000;-88
2024/02/20 08:11:09;;;;;;;6.60;1.05;;;7.50;99.90;;;;;;6278373;22;20010;-88
2024/02/20 08:13:35;;;;;;;9.43;0.80;;;7.50;99.90;;;;;;6278436;22;20007;-89
2024/02/20 08:16:01;;;;;;;9.15;0.90;;;7.60;99.90;;;;;;6278268;22;20015;-87
2024/02/20 08:18:27;;;;;;;11.48;0.93;;;7.60;99.90;;;;;;6303913;22;20038;-88
2024/02/20 08:20:54;;;;;;;7.30;1.58;;;7.70;99.90;;;;;;6277978;22;20419;-88
2024/02/20 08:23:19;;;;;;;7.00;1.27;;;7.70;99.90;;;;;;6305353;22;20014;-88
2024/02/20 08:25:45;;;;;;;6.30;1.20;;;7.80;99.90;;;;;;6278323;22;20015;-87
2024/02/20 08:28:11;;;;;;;8.30;1.30;;;7.80;99.90;;;;;;6278043;22;20156;-88
2024/02/20 08:30:37;;;;;;;5.22;0.98;;;7.80;99.90;;;;;;6278106;22;20003;-87
2024/02/20 08:33:03;;;;;;;5.88;0.80;;;7.80;99.90;;;;;;6304245;22;20014;-87
2024/02/20 08:35:28;;;;;;;7.90;1.10;;;7.80;99.90;;;;;;6303959;22;20003;-87
2024/02/20 08:37:56;;;;;;;8.13;0.90;;;7.90;99.90;;;;;;6304474;22;20094;-88
2024/02/20 08:40:22;;;;;;;7.07;1.40;;;7.90;99.90;;;;;;6277700;22;20456;-87
2024/02/20 08:42:48;;;;;;;10.65;1.80;;;7.90;99.90;;;;;;6303820;22;19996;-87
2024/02/20 08:45:14;;;;;;;9.05;1.63;;;7.90;99.90;;;;;;6277957;22;20064;-87
2024/02/20 08:47:40;;;;;;;9.63;1.55;;;8.00;99.90;;;;;;6305177;22;20056;-86
2024/02/20 08:50:06;;;;;;;5.85;1.00;;;8.00;99.90;;;;;;6304027;22;20415;-88
2024/02/20 08:52:32;;;;;;;11.70;1.38;;;8.00;99.90;;;;;;6277802;22;20010;-87
2024/02/20 08:54:57;;;;;;;7.18;1.35;;;8.10;99.90;;;;;;6278500;22;20008;-87
2024/02/20 08:57:23;;;;;;;5.05;0.98;;;8.20;99.90;;;;;;6303012;22;20004;-87
2024/02/20 08:59:50;;;;;;;7.53;1.35;;;8.20;99.90;;;;;;6303774;22;20325;-87
2024/02/20 09:02:16;;;;;;;11.05;1.50;;;8.20;99.90;;;;;;6303580;22;20006;-87
2024/02/20 09:04:41;;;;;;;11.00;1.27;;;8.30;99.90;;;;;;6303700;22;20003;-87
2024/02/20 09:07:07;;;;;;;6.22;1.27;;;8.40;99.90;;;;;;6303573;22;20033;-87
2024/02/20 09:09:33;;;;;;;6.55;1.10;;;8.40;99.90;;;;;;6303610;22;20015;-87
2024/02/20 09:12:00;;;;;;;5.90;1.33;;;8.50;99.90;;;;;;6303318;22;20062;-87
2024/02/20 09:14:26;;;;;;;6.78;1.33;;;8.60;99.90;;;;;;6277493;22;20095;-87
2024/02/20 09:16:51;;;;;;;9.43;1.65;;;8.70;99.90;;;;;;6277940;22;20384;-86
2024/02/20 09:19:18;;;;;;;6.32;1.98;;;8.70;99.90;;;;;;6303097;22;20099;-87
2024/02/20 09:21:43;;;;;;;10.18;1.58;;;8.60;99.90;;;;;;6277824;22;20136;-86
2024/02/20 09:24:10;;;;;;;6.05;1.65;;;8.70;99.90;;;;;;6303862;22;20426;-87
2024/02/20 09:26:39;;;;;;;8.10;1.70;;;8.70;99.90;;;;;;6303608;22;20011;-87
2024/02/20 09:29:04;;;;;;;9.60;1.83;;;8.80;99.90;;;;;;6303374;22;20011;-87
2024/02/20 09:31:30;;;;;;;7.45;2.10;;;8.70;99.90;;;;;;6303246;22;20007;-87
2024/02/20 09:33:56;;;;;;;11.00;2.83;;;8.80;99.90;;;;;;6303724;22;20454;-87
2024/02/20 09:36:21;;;;;;;9.88;2.95;;;8.80;99.90;;;;;;6304678;22;20007;-87
2024/02/20 09:38:47;;;;;;;12.85;2.30;;;8.80;99.90;;;;;;6303728;22;20500;-87
2024/02/20 09:41:21;;;;;;;9.27;2.28;;;8.90;99.90;;;;;;6277725;22;20026;-87
2024/02/20 09:43:48;;;;;;;13.40;3.03;;;9.00;99.90;;;;;;6277493;22;20404;-87
2024/02/20 09:46:20;;;;;;;12.50;2.78;;;8.90;99.90;;;;;;6277607;22;20394;-85
2024/02/20 09:48:48;;;;;;;10.95;2.72;;;8.90;99.90;;;;;;6276845;22;20011;-87
2024/02/20 09:51:16;;;;;;;9.93;2.55;;;8.90;99.90;;;;;;6277499;22;20014;-87
2024/02/20 09:53:42;;;;;;;10.48;2.05;;;9.00;99.90;;;;;;6303567;22;20026;-87
2024/02/20 09:56:08;;;;;;;10.55;2.13;;;8.90;99.90;;;;;;6303250;22;20435;-87
2024/02/20 09:58:34;;;;;;;10.48;1.90;;;9.00;99.90;;;;;;6277161;22;20014;-87
2024/02/20 10:01:06;;;;;;;6.05;1.70;;;9.10;99.90;;;;;;6304674;22;20019;-88
2024/02/20 10:03:34;;;;;;;8.95;1.92;;;9.20;99.90;;;;;;6304929;22;20034;-87
2024/02/20 10:05:59;;;;;;;10.73;2.17;;;9.20;99.90;;;;;;6303792;22;20499;-87
2024/02/20 10:08:27;;;;;;;11.57;2.33;;;9.20;99.90;;;;;;6303318;22;19995;-87
2024/02/20 10:10:53;;;;;;;10.20;2.35;;;9.30;99.90;;;;;;6303122;22;20037;-87
2024/02/20 10:13:19;;;;;;;8.90;1.95;;;9.40;99.90;;;;;;6276991;22;20424;-87
2024/02/20 10:15:46;;;;;;;8.98;1.40;;;9.40;99.90;;;;;;6277579;22;20014;-87
2024/02/20 10:18:14;;;;;;;9.00;2.30;;;9.50;99.90;;;;;;6277234;22;20007;-86
2024/02/20 10:20:40;;;;;;;9.90;2.40;;;9.50;99.90;;;;;;6277576;22;20014;-87
2024/02/20 10:23:07;;;;;;;8.73;2.22;;;9.70;99.90;;;;;;6278111;22;20035;-86
2024/02/20 10:25:33;;;;;;;12.60;2.75;;;9.50;99.90;;;;;;6303116;22;20023;-88
2024/02/20 10:27:58;;;;;;;11.65;2.63;;;9.60;99.90;;;;;;6304438;22;20481;-87
2024/02/20 10:30:24;;;;;;;13.63;3.45;;;9.70;99.90;;;;;;6302568;22;20407;-88
2024/02/20 10:32:50;;;;;;;8.98;2.55;;;9.70;99.90;;;;;;6302754;22;20069;-88
2024/02/20 10:35:15;;;;;;;9.77;3.08;;;9.70;99.90;;;;;;6276090;22;20003;-87
2024/02/20 10:37:41;;;;;;;11.52;2.45;;;9.60;99.90;;;;;;6301264;22;20339;-87
2024/02/20 10:40:12;;;;;;;14.18;3.05;;;9.60;99.90;;;;;;6275458;22;20246;-88
2024/02/20 10:42:40;;;;;;;11.25;3.38;;;9.70;99.90;;;;;;6275537;22;20241;-88
2024/02/20 10:45:12;;;;;;;13.23;3.00;;;9.80;99.90;;;;;;6300983;22;20007;-89
2024/02/20 10:47:45;;;;;;;15.10;3.92;;;9.80;99.90;;;;;;6275551;22;20040;-89
2024/02/20 10:50:15;;;;;;;13.05;3.72;;;9.70;99.90;;;;;;6275412;22;20452;-88
2024/02/20 10:52:42;;;;;;;16.58;3.38;;;9.90;99.90;;;;;;6275570;22;20336;-89
2024/02/20 10:55:11;;;;;;;11.93;3.50;;;9.80;99.90;;;;;;6275879;22;20003;-89
2024/02/20 10:57:42;;;;;;;14.57;5.03;;;9.80;99.90;;;;;;6301048;22;20004;-89
2024/02/20 11:00:09;;;;;;;14.95;3.05;;;9.70;99.90;;;;;;6275653;22;20023;-89
2024/02/20 11:02:43;;;;;;;24.15;5.82;;;9.90;99.90;;;;;;6275097;22;20011;-89
2024/02/20 11:05:10;;;;;;;22.98;6.15;;;9.70;99.90;;;;;;6301527;22;20027;-89
2024/02/20 11:07:36;;;;;;;17.88;5.15;;;9.60;99.90;;;;;;6301571;22;20071;-89
2024/02/20 11:10:10;;;;;;;16.55;5.25;;;9.80;99.90;;;;;;6302031;22;20062;-90
2024/02/20 11:12:37;;;;;;;15.98;5.15;;;9.80;99.90;;;;;;6275515;22;20014;-90
2024/02/20 11:15:19;;;;;;;17.70;6.15;;;9.80;99.90;;;;;;6301215;22;20003;-91
2024/02/20 11:17:46;;;;;;;14.45;5.85;;;9.90;99.90;;;;;;6302536;22;20007;-88
2024/02/20 11:20:21;;;;;;;11.88;4.28;;;9.90;99.90;;;;;;6300687;22;20026;-89
2024/02/20 11:22:50;;;;;;;16.85;7.00;;;10.00;99.90;;;;;;6300893;22;20389;-88
2024/02/20 11:25:20;;;;;;;20.77;5.85;;;9.90;99.90;;;;;;6300832;22;20015;-88
2024/02/20 11:27:47;;;;;;;17.55;5.07;;;10.00;99.90;;;;;;6300706;22;20009;-88
2024/02/20 11:30:18;;;;;;;10.48;4.53;;;10.00;99.90;;;;;;6274901;22;20391;-88
2024/02/20 11:32:45;;;;;;;12.20;4.10;;;10.10;99.90;;;;;;6300927;22;20011;-85
2024/02/20 11:35:25;;;;;;;16.65;5.05;;;10.10;99.90;;;;;;6274943;22;20007;-87
2024/02/20 11:37:53;;;;;;;15.65;4.22;;;10.10;99.90;;;;;;6275577;22;20011;-87
2024/02/20 11:40:23;;;;;;;21.63;5.88;;;10.00;99.90;;;;;;6299928;22;20015;-87
2024/02/20 11:42:50;;;;;;;16.90;4.88;;;10.00;99.90;;;;;;6274767;22;20003;-87
2024/02/20 11:45:21;;;;;;;10.27;3.20;;;10.10;99.90;;;;;;6274191;22;20011;-87
2024/02/20 11:47:59;;;;;;;17.50;4.50;;;10.20;99.90;;;;;;6274742;22;20385;-85
2024/02/20 11:50:29;;;;;;;10.20;3.78;;;10.20;99.90;;;;;;6300192;22;20514;-87
2024/02/20 11:53:06;;;;;;;12.35;4.03;;;10.30;99.90;;;;;;6300785;22;20110;-86
2024/02/20 11:55:32;;;;;;;13.00;4.20;;;10.20;99.90;;;;;;6274175;22;20017;-86
2024/02/20 11:58:00;;;;;;;14.38;4.30;;;10.30;99.90;;;;;;6302192;22;20029;-87
2024/02/20 12:00:27;;;;;;;13.93;4.15;;;10.40;99.90;;;;;;6301916;22;20078;-87
2024/02/20 12:02:54;;;;;;;9.40;3.00;;;10.50;99.90;;;;;;6302183;22;20078;-86
2024/02/20 12:05:25;;;;;;;14.95;4.32;;;10.60;99.90;;;;;;6303227;22;20007;-86
2024/02/20 12:07:52;;;;;;;15.25;4.55;;;10.60;99.90;;;;;;6301242;22;20097;-83
2024/02/20 12:10:19;;;;;;;13.82;3.83;;;10.60;99.90;;;;;;6300889;22;20068;-84
2024/02/20 12:12:45;;;;;;;15.52;4.50;;;10.60;99.90;;;;;;6301309;22;20530;-83
2024/02/20 12:15:11;;;;;;;11.02;3.35;;;10.70;99.90;;;;;;6301312;22;20293;-82
2024/02/20 12:17:45;;;;;;;17.98;4.07;;;10.80;99.90;;;;;;6298274;22;20321;-83
2024/02/20 12:20:12;;;;;;;12.35;3.85;;;11.10;99.90;;;;;;6300507;22;20034;-84
2024/02/20 12:22:39;;;;;;;11.18;3.58;;;11.10;99.90;;;;;;6301396;22;20015;-84
2024/02/20 12:25:19;;;;;;;12.23;2.47;;;11.10;99.90;;;;;;6300287;22;20025;-85
2024/02/20 12:27:47;;;;;;;22.50;5.90;;;11.10;99.90;;;;;;6274710;22;20422;-84
2024/02/20 12:30:13;;;;;;;19.75;4.38;;;10.70;99.90;;;;;;6301962;22;20015;-82
2024/02/20 12:32:38;;;;;;;12.95;3.70;;;10.70;99.90;;;;;;6299995;22;20007;-83
2024/02/20 12:35:04;;;;;;;10.63;3.13;;;10.80;99.90;;;;;;6300169;22;20530;-83
2024/02/20 12:37:30;;;;;;;10.63;2.88;;;10.80;99.90;;;;;;6300209;22;20011;-82
2024/02/20 12:39:56;;;;;;;13.98;3.15;;;10.90;99.90;;;;;;6300490;22;20019;-82
2024/02/20 12:42:22;;;;;;;17.13;3.47;;;10.80;99.90;;;;;;6273665;22;20026;-83
2024/02/20 12:44:50;;;;;;;16.75;3.53;;;10.80;99.90;;;;;;6274971;22;20011;-83
2024/02/20 12:47:16;;;;;;;11.38;3.00;;;10.70;99.90;;;;;;6273414;22;20031;-83
2024/02/20 12:49:42;;;;;;;14.07;2.30;;;10.70;99.90;;;;;;6300686;22;20007;-84